createdAt,value
2023-04-18T00:00:34.101Z,7.03
2023-04-18T00:03:39.034Z,6.99
2023-04-18T00:06:42.273Z,6.93
2023-04-18T00:09:45.673Z,6.85
2023-04-18T00:12:50.196Z,6.84
2023-04-18T00:15:54.171Z,6.84
2023-04-18T00:18:57.543Z,6.93
2023-04-18T00:22:00.449Z,6.96
2023-04-18T00:25:03.796Z,6.93
2023-04-18T00:28:07.998Z,6.85
2023-04-18T00:31:11.036Z,6.89
2023-04-18T00:34:14.312Z,6.88
2023-04-18T00:37:17.598Z,6.82
2023-04-18T00:40:20.517Z,6.71
2023-04-18T00:43:25.593Z,6.72
2023-04-18T00:46:28.517Z,6.67
2023-04-18T00:49:31.678Z,6.68
2023-04-18T00:52:36.138Z,6.64
2023-04-18T00:55:40.630Z,6.63
2023-04-18T00:58:45.218Z,6.61
2023-04-18T01:01:48.567Z,6.52
2023-04-18T01:04:52.256Z,6.52
2023-04-18T01:07:58.908Z,6.50
2023-04-18T01:11:02.051Z,6.56
2023-04-18T01:14:07.850Z,6.68
2023-04-18T01:17:11.258Z,6.63
2023-04-18T01:20:16.766Z,6.49
2023-04-18T01:23:20.797Z,6.47
2023-04-18T01:26:25.281Z,6.41
2023-04-18T01:29:28.248Z,6.43
2023-04-18T01:32:31.265Z,6.52
2023-04-18T01:35:34.990Z,6.43
2023-04-18T01:38:38.226Z,6.44
2023-04-18T01:41:43.070Z,6.52
2023-04-18T01:44:47.408Z,6.48
2023-04-18T01:47:50.399Z,6.44
2023-04-18T01:50:53.533Z,6.50
2023-04-18T01:53:56.572Z,6.54
2023-04-18T01:57:00.899Z,6.62
2023-04-18T02:00:03.982Z,6.68
2023-04-18T02:03:07.084Z,6.65
2023-04-18T02:06:10.087Z,6.69
2023-04-18T02:09:13.093Z,6.71
2023-04-18T02:12:17.298Z,6.67
2023-04-18T02:15:20.598Z,6.66
2023-04-18T02:18:24.801Z,6.72
2023-04-18T02:21:30.379Z,6.73
2023-04-18T02:24:33.288Z,6.80
2023-04-18T02:27:37.782Z,6.80
2023-04-18T02:30:40.744Z,6.85
2023-04-18T02:33:44.175Z,6.80
2023-04-18T02:36:48.403Z,6.78
2023-04-18T02:39:52.201Z,6.73
2023-04-18T02:42:56.878Z,6.78
2023-04-18T02:45:59.927Z,6.63
2023-04-18T02:49:03.011Z,6.68
2023-04-18T02:52:06.739Z,6.52
2023-04-18T02:55:10.479Z,6.56
2023-04-18T02:58:14.744Z,6.54
2023-04-18T03:01:19.242Z,6.46
2023-04-18T03:04:22.379Z,6.43
2023-04-18T03:07:25.535Z,6.39
2023-04-18T03:10:28.672Z,6.43
2023-04-18T03:13:33.279Z,6.49
2023-04-18T03:16:36.250Z,6.48
2023-04-18T03:19:39.114Z,6.40
2023-04-18T03:22:42.075Z,6.66
2023-04-18T03:25:45.035Z,6.49
2023-04-18T03:28:49.425Z,6.54
2023-04-18T03:31:52.273Z,6.47
2023-04-18T03:34:55.423Z,6.31
2023-04-18T03:37:58.279Z,6.38
2023-04-18T03:41:01.156Z,6.37
2023-04-18T03:44:05.760Z,6.34
2023-04-18T03:47:08.808Z,6.38
2023-04-18T03:50:12.005Z,6.33
2023-04-18T03:53:15.485Z,6.46
2023-04-18T03:56:18.608Z,6.42
2023-04-18T03:59:23.126Z,6.37
2023-04-18T04:02:26.293Z,6.36
2023-04-18T04:05:29.683Z,6.42
2023-04-18T04:08:32.705Z,6.54
2023-04-18T04:11:35.654Z,6.45
2023-04-18T04:14:40.027Z,6.46
2023-04-18T04:17:42.946Z,6.58
2023-04-18T04:20:47.255Z,6.52
2023-04-18T04:23:50.613Z,6.53
2023-04-18T04:26:54.335Z,6.53
2023-04-18T04:29:58.680Z,6.45
2023-04-18T04:33:01.786Z,6.49
2023-04-18T04:36:05.335Z,6.50
2023-04-18T04:39:08.827Z,6.46
2023-04-18T04:42:12.203Z,6.53
2023-04-18T04:45:17.456Z,6.54
2023-04-18T04:48:22.203Z,6.50
2023-04-18T04:51:25.287Z,6.63
2023-04-18T04:54:28.283Z,6.61
2023-04-18T04:57:31.207Z,6.75
2023-04-18T05:00:35.691Z,6.85
2023-04-18T05:03:38.652Z,7.08
2023-04-18T05:06:41.730Z,7.49
2023-04-18T05:09:44.587Z,7.74
2023-04-18T05:12:47.547Z,7.85
2023-04-18T05:15:52.784Z,7.98
2023-04-18T05:18:55.644Z,7.82
2023-04-18T05:21:58.586Z,7.85
2023-04-18T05:25:01.546Z,7.59
2023-04-18T05:28:05.459Z,7.44
2023-04-18T05:31:09.651Z,7.65
2023-04-18T05:34:12.693Z,7.68
2023-04-18T05:37:15.801Z,7.76
2023-04-18T05:40:18.619Z,7.75
2023-04-18T05:43:21.588Z,7.81
2023-04-18T05:46:27.018Z,7.93
2023-04-18T05:49:32.209Z,7.91
2023-04-18T05:52:35.335Z,7.87
2023-04-18T05:55:40.463Z,7.86
2023-04-18T05:58:44.965Z,8.07
2023-04-18T06:01:49.499Z,8.23
2023-04-18T06:04:52.711Z,8.46
2023-04-18T06:07:55.869Z,8.54
2023-04-18T06:10:58.997Z,8.36
2023-04-18T06:14:01.826Z,8.33
2023-04-18T06:17:07.412Z,8.65
2023-04-18T06:20:11.368Z,8.71
2023-04-18T06:23:14.328Z,8.96
2023-04-18T06:26:17.264Z,8.86
2023-04-18T06:29:20.197Z,9.01
2023-04-18T06:32:24.412Z,8.94
2023-04-18T06:35:28.024Z,9.00
2023-04-18T06:38:31.052Z,9.06
2023-04-18T06:41:34.110Z,8.80
2023-04-18T06:44:37.065Z,8.87
2023-04-18T06:47:42.068Z,8.91
2023-04-18T06:50:45.158Z,8.96
2023-04-18T06:53:48.505Z,8.89
2023-04-18T06:56:51.543Z,8.98
2023-04-18T06:59:54.719Z,9.01
2023-04-18T07:02:59.027Z,8.88
2023-04-18T07:06:02.967Z,8.95
2023-04-18T07:09:05.778Z,8.98
2023-04-18T07:12:08.791Z,9.12
2023-04-18T07:15:12.365Z,9.12
2023-04-18T07:18:30.312Z,9.41
2023-04-18T07:21:40.575Z,9.71
2023-04-18T07:24:44.155Z,9.56
2023-04-18T07:27:47.833Z,9.92
2023-04-18T07:30:50.701Z,10.13
2023-04-18T07:33:55.333Z,10.27
2023-04-18T07:36:58.726Z,11.15
2023-04-18T07:40:01.735Z,11.64
2023-04-18T07:43:04.623Z,12.14
2023-04-18T07:46:07.613Z,12.66
2023-04-18T07:49:12.110Z,13.17
2023-04-18T07:52:15.075Z,13.19
2023-04-18T07:55:18.558Z,13.49
2023-04-18T07:58:21.614Z,12.77
2023-04-18T08:01:27.085Z,12.82
2023-04-18T08:04:31.623Z,13.45
2023-04-18T08:07:34.616Z,13.37
2023-04-18T08:10:38.228Z,13.02
2023-04-18T08:13:41.083Z,12.75
2023-04-18T08:16:44.032Z,12.13
2023-04-18T08:19:48.486Z,12.04
2023-04-18T08:26:00.483Z,11.73
2023-04-18T08:29:03.447Z,11.70
2023-04-18T08:32:08.452Z,11.55
2023-04-18T08:35:12.814Z,11.46
2023-04-18T08:38:17.134Z,11.65
2023-04-18T08:41:23.435Z,11.69
2023-04-18T08:44:27.019Z,11.88
2023-04-18T08:47:31.292Z,11.96
2023-04-18T08:50:36.180Z,11.98
2023-04-18T08:53:42.128Z,11.90
2023-04-18T08:56:45.330Z,11.94
2023-04-18T08:59:50.857Z,11.87
2023-04-18T09:02:57.086Z,11.73
2023-04-18T09:06:09.490Z,11.61
2023-04-18T09:09:12.626Z,11.62
2023-04-18T09:12:18.377Z,11.67
2023-04-18T09:15:23.906Z,11.65
2023-04-18T09:18:26.798Z,11.82
2023-04-18T09:21:32.797Z,11.73
2023-04-18T09:24:35.818Z,11.84
2023-04-18T09:27:38.669Z,11.87
2023-04-18T09:30:43.202Z,12.37
2023-04-18T09:33:54.396Z,12.25
2023-04-18T09:37:09.162Z,12.10
2023-04-18T09:40:19.097Z,12.21
2023-04-18T09:43:22.352Z,12.10
2023-04-18T09:46:25.522Z,12.31
2023-04-18T09:49:28.654Z,12.77
2023-04-18T09:52:35.876Z,13.07
2023-04-18T09:55:42.411Z,13.28
2023-04-18T09:58:48.139Z,13.48
2023-04-18T10:01:51.977Z,13.49
2023-04-18T10:04:56.987Z,13.68
2023-04-18T10:08:01.703Z,13.66
2023-04-18T10:11:04.875Z,13.76
2023-04-18T10:14:10.589Z,13.75
2023-04-18T10:17:15.711Z,14.12
2023-04-18T10:20:21.187Z,14.00
2023-04-18T10:23:37.692Z,14.25
2023-04-18T10:26:50.299Z,14.49
2023-04-18T10:29:54.638Z,14.85
2023-04-18T10:32:57.663Z,14.84
2023-04-18T10:36:03.164Z,14.70
2023-04-18T10:39:22.551Z,15.19
2023-04-18T10:42:59.393Z,15.33
2023-04-18T10:46:23.809Z,15.24
2023-04-18T10:49:32.055Z,14.89
2023-04-18T10:52:35.932Z,14.92
2023-04-18T10:55:43.165Z,14.58
2023-04-18T10:58:51.587Z,14.82
2023-04-18T11:01:57.770Z,15.05
2023-04-18T11:05:02.233Z,14.99
2023-04-18T11:08:05.412Z,15.02
2023-04-18T11:11:11.308Z,14.73
2023-04-18T11:14:14.561Z,14.80
2023-04-18T11:17:19.377Z,14.69
2023-04-18T11:20:22.282Z,14.93
2023-04-18T11:23:25.387Z,14.91
2023-04-18T11:26:30.678Z,14.85
2023-04-18T11:29:33.628Z,15.03
2023-04-18T11:32:36.572Z,15.19
2023-04-18T11:35:40.598Z,15.00
2023-04-18T11:38:43.527Z,14.91
2023-04-18T11:41:50.651Z,14.93
2023-04-18T11:44:53.410Z,14.81
2023-04-18T11:47:58.467Z,14.86
2023-04-18T11:51:01.479Z,15.13
2023-04-18T11:54:04.532Z,15.01
2023-04-18T11:57:20.881Z,14.91
2023-04-18T12:00:34.121Z,15.01
2023-04-18T12:03:37.309Z,15.22
2023-04-18T12:06:49.508Z,14.92
2023-04-18T12:09:53.494Z,14.97
2023-04-18T12:12:59.788Z,15.07
2023-04-18T12:16:03.543Z,15.08
2023-04-18T12:19:11.171Z,14.97
2023-04-18T12:22:16.689Z,15.01
2023-04-18T12:25:25.925Z,14.94
2023-04-18T12:28:32.372Z,14.72
2023-04-18T12:31:35.149Z,15.00
2023-04-18T12:34:37.976Z,15.08
2023-04-18T12:37:41.006Z,14.83
2023-04-18T12:40:43.737Z,15.20
2023-04-18T12:43:47.909Z,15.05
2023-04-18T12:46:50.700Z,15.07
2023-04-18T12:49:53.573Z,15.22
2023-04-18T12:52:58.290Z,15.28
2023-04-18T12:56:01.187Z,15.29
2023-04-18T12:59:05.829Z,15.35
2023-04-18T13:02:08.586Z,15.48
2023-04-18T13:05:13.396Z,15.25
2023-04-18T13:08:17.914Z,15.14
2023-04-18T13:11:22.620Z,15.28
2023-04-18T13:14:26.925Z,15.38
2023-04-18T13:17:29.838Z,15.54
2023-04-18T13:20:32.985Z,15.72
2023-04-18T13:23:35.801Z,15.52
2023-04-18T13:26:38.806Z,15.25
2023-04-18T13:29:45.716Z,15.44
2023-04-18T13:32:48.535Z,15.50
2023-04-18T13:35:51.427Z,15.52
2023-04-18T13:38:54.316Z,15.52
2023-04-18T13:41:57.234Z,15.45
2023-04-18T13:45:01.663Z,15.35
2023-04-18T13:48:04.790Z,15.46
2023-04-18T13:51:08.052Z,15.61
2023-04-18T13:54:14.647Z,15.76
2023-04-18T13:57:17.659Z,15.79
2023-04-18T14:00:22.522Z,15.89
2023-04-18T14:03:25.465Z,15.78
2023-04-18T14:06:28.722Z,15.69
2023-04-18T14:09:31.557Z,15.82
2023-04-18T14:12:34.707Z,15.79
2023-04-18T14:15:39.167Z,15.74
2023-04-18T14:18:42.047Z,15.92
2023-04-18T14:21:45.178Z,15.86
2023-04-18T14:24:47.971Z,15.84
2023-04-18T14:28:04.387Z,15.75
2023-04-18T14:31:08.669Z,15.66
2023-04-18T14:34:11.481Z,15.79
2023-04-18T14:37:15.714Z,15.74
2023-04-18T14:40:20.369Z,15.67
2023-04-18T14:43:23.219Z,15.68
2023-04-18T14:46:28.456Z,15.70
2023-04-18T14:49:31.448Z,15.89
2023-04-18T14:52:34.481Z,15.92
2023-04-18T14:55:37.788Z,16.04
2023-04-18T14:58:40.694Z,15.83
2023-04-18T15:01:45.165Z,15.91
2023-04-18T15:04:48.707Z,15.92
2023-04-18T15:07:52.061Z,15.81
2023-04-18T15:10:54.943Z,15.69
2023-04-18T15:13:58.438Z,15.74
2023-04-18T15:17:02.974Z,15.79
2023-04-18T15:20:07.631Z,15.88
2023-04-18T15:23:13.690Z,15.72
2023-04-18T15:26:17.022Z,15.61
2023-04-18T15:29:19.953Z,15.56
2023-04-18T15:32:24.865Z,15.54
2023-04-18T15:35:27.981Z,15.46
2023-04-18T15:38:32.875Z,15.32
2023-04-18T15:41:38.111Z,15.37
2023-04-18T15:44:40.912Z,15.39
2023-04-18T15:47:45.347Z,15.31
2023-04-18T15:50:52.044Z,15.38
2023-04-18T15:53:55.082Z,15.22
2023-04-18T15:56:58.139Z,15.14
2023-04-18T16:00:01.224Z,15.05
2023-04-18T16:03:05.937Z,15.05
2023-04-18T16:06:10.553Z,15.16
2023-04-18T16:09:14.578Z,15.13
2023-04-18T16:12:17.477Z,15.20
2023-04-18T16:15:20.368Z,15.29
2023-04-18T16:18:24.827Z,15.05
2023-04-18T16:21:28.171Z,14.96
2023-04-18T16:24:31.165Z,14.92
2023-04-18T16:27:34.002Z,15.00
2023-04-18T16:30:36.737Z,14.81
2023-04-18T16:33:41.225Z,14.77
2023-04-18T16:36:44.130Z,14.71
2023-04-18T16:39:47.076Z,14.64
2023-04-18T16:42:49.900Z,14.64
2023-04-18T16:45:52.700Z,14.57
2023-04-18T16:48:56.916Z,14.65
2023-04-18T16:51:59.690Z,14.60
2023-04-18T16:55:02.821Z,14.43
2023-04-18T16:58:05.877Z,14.45
2023-04-18T17:01:09.054Z,14.38
2023-04-18T17:04:13.467Z,14.60
2023-04-18T17:07:16.507Z,14.25
2023-04-18T17:10:19.766Z,14.37
2023-04-18T17:13:26.933Z,14.12
2023-04-18T17:16:29.815Z,14.11
2023-04-18T17:19:34.276Z,14.09
2023-04-18T17:22:37.217Z,13.69
2023-04-18T17:25:40.744Z,13.55
2023-04-18T17:28:43.546Z,13.77
2023-04-18T17:31:46.462Z,13.72
2023-04-18T17:34:50.887Z,13.39
2023-04-18T17:37:53.875Z,13.27
2023-04-18T17:41:01.101Z,13.49
2023-04-18T17:44:04.121Z,13.30
2023-04-18T17:47:06.982Z,13.27
2023-04-18T17:50:12.338Z,12.96
2023-04-18T17:53:15.236Z,13.06
2023-04-18T17:56:18.224Z,12.89
2023-04-18T17:59:21.118Z,12.85
2023-04-18T18:02:24.330Z,12.70
2023-04-18T18:05:28.812Z,12.64
2023-04-18T18:08:31.723Z,12.63
2023-04-18T18:11:34.778Z,12.73
2023-04-18T18:14:37.571Z,12.66
2023-04-18T18:17:40.524Z,12.47
2023-04-18T18:20:45.038Z,12.48
2023-04-18T18:23:48.441Z,12.53
2023-04-18T18:26:51.871Z,12.36
2023-04-18T18:29:54.867Z,12.24
2023-04-18T18:32:57.972Z,12.07
2023-04-18T18:36:02.604Z,12.16
2023-04-18T18:39:05.458Z,11.93
2023-04-18T18:42:08.528Z,11.75
2023-04-18T18:45:11.454Z,11.93
2023-04-18T18:48:15.431Z,11.83
2023-04-18T18:51:20.079Z,11.70
2023-04-18T18:54:23.005Z,11.66
2023-04-18T18:57:26.083Z,11.59
2023-04-18T19:00:29.099Z,11.52
2023-04-18T19:03:31.920Z,11.60
2023-04-18T19:06:36.269Z,11.51
2023-04-18T19:09:38.993Z,11.44
2023-04-18T19:12:41.843Z,11.53
2023-04-18T19:15:44.690Z,11.23
2023-04-18T19:18:49.114Z,11.18
2023-04-18T19:21:53.339Z,11.09
2023-04-18T19:24:56.067Z,11.15
2023-04-18T19:27:58.934Z,11.09
2023-04-18T19:31:01.833Z,11.02
2023-04-18T19:34:04.696Z,10.78
2023-04-18T19:37:08.980Z,10.77
2023-04-18T19:40:12.427Z,10.74
2023-04-18T19:43:15.188Z,10.71
2023-04-18T19:46:17.925Z,10.59
2023-04-18T19:49:22.427Z,10.60
2023-04-18T19:52:26.605Z,10.39
2023-04-18T19:55:29.348Z,10.51
2023-04-18T19:58:35.785Z,10.52
2023-04-18T20:01:38.753Z,10.43
2023-04-18T20:04:42.356Z,10.32
2023-04-18T20:07:46.605Z,10.24
2023-04-18T20:10:49.609Z,10.18
2023-04-18T20:13:54.973Z,10.04
2023-04-18T20:16:58.177Z,10.00
2023-04-18T20:20:01.532Z,9.82
2023-04-18T20:23:06.028Z,9.78
2023-04-18T20:26:09.239Z,9.64
2023-04-18T20:29:12.196Z,9.64
2023-04-18T20:32:16.180Z,9.65
2023-04-18T20:35:22.328Z,9.52
2023-04-18T20:38:29.883Z,9.52
2023-04-18T20:41:34.876Z,9.37
2023-04-18T20:44:38.062Z,9.34
2023-04-18T20:47:41.477Z,9.32
2023-04-18T20:50:50.656Z,9.25
2023-04-18T20:53:54.896Z,9.24
2023-04-18T20:56:57.616Z,9.33
2023-04-18T21:00:00.539Z,9.29
2023-04-18T21:03:03.335Z,9.29
2023-04-18T21:06:06.396Z,9.19
2023-04-18T21:09:10.508Z,9.29
2023-04-18T21:12:13.403Z,9.04
2023-04-18T21:15:16.302Z,8.99
2023-04-18T21:18:19.312Z,8.81
2023-04-18T21:21:21.993Z,8.74
2023-04-18T21:24:26.212Z,8.69
2023-04-18T21:27:28.948Z,8.66
2023-04-18T21:30:31.805Z,8.58
2023-04-18T21:33:34.634Z,8.68
2023-04-18T21:36:39.936Z,8.47
2023-04-18T21:39:44.205Z,8.59
2023-04-18T21:42:48.663Z,8.53
2023-04-18T21:45:52.733Z,8.22
2023-04-18T21:48:55.726Z,8.26
2023-04-18T21:51:58.441Z,8.17
2023-04-18T21:55:02.689Z,8.26
2023-04-18T21:58:05.437Z,8.30
2023-04-18T22:01:08.284Z,8.19
2023-04-18T22:04:12.503Z,8.14
2023-04-18T22:07:18.481Z,8.07
2023-04-18T22:10:22.941Z,8.04
2023-04-18T22:13:30.074Z,7.88
2023-04-18T22:16:33.419Z,7.71
2023-04-18T22:19:36.409Z,7.81
2023-04-18T22:22:39.142Z,7.79
2023-04-18T22:25:43.376Z,7.71
2023-04-18T22:28:46.136Z,7.67
2023-04-18T22:31:49.024Z,7.67
2023-04-18T22:34:51.878Z,7.57
2023-04-18T22:37:54.600Z,7.58
2023-04-18T22:41:00.463Z,7.42
2023-04-18T22:44:03.191Z,7.32
2023-04-18T22:47:06.357Z,7.31
2023-04-18T22:50:10.114Z,7.38
2023-04-18T22:53:14.353Z,7.35
2023-04-18T22:56:18.654Z,7.27
2023-04-18T22:59:21.790Z,7.15
2023-04-18T23:02:25.256Z,7.29
2023-04-18T23:05:28.395Z,7.40
2023-04-18T23:08:31.600Z,7.64
2023-04-18T23:11:36.155Z,7.42
2023-04-18T23:14:40.577Z,7.42
2023-04-18T23:17:43.630Z,7.29
2023-04-18T23:20:47.138Z,7.31
2023-04-18T23:23:50.114Z,7.37
2023-04-18T23:26:54.466Z,7.49
2023-04-18T23:29:57.364Z,7.28
2023-04-18T23:33:00.544Z,7.34
2023-04-18T23:36:03.508Z,7.25
2023-04-18T23:39:06.557Z,7.32
2023-04-18T23:42:11.071Z,7.35
2023-04-18T23:45:16.541Z,7.57
2023-04-18T23:48:19.621Z,7.59
2023-04-18T23:51:22.570Z,7.56
2023-04-18T23:54:25.488Z,7.46
2023-04-18T23:57:29.935Z,7.57
